createdAt,value
2018-07-22T11:47:35.334Z,18.80
2018-07-22T11:50:09.244Z,18.80
2018-07-22T11:52:41.457Z,18.80
2018-07-22T11:55:14.014Z,18.80
2018-07-22T11:57:47.584Z,18.90
2018-07-22T12:00:21.536Z,18.80
2018-07-22T12:03:05.489Z,18.80
2018-07-22T12:05:37.410Z,18.80
2018-07-22T12:08:09.890Z,18.80
2018-07-22T12:10:42.558Z,18.80
2018-07-22T12:13:15.850Z,18.90
2018-07-22T12:15:53.393Z,19.00
2018-07-22T12:18:28.161Z,18.90
2018-07-22T12:21:01.401Z,18.90
2018-07-22T12:23:37.701Z,18.80
2018-07-22T12:26:12.891Z,18.80
2018-07-22T12:28:51.524Z,18.70
2018-07-22T12:31:32.628Z,18.70
2018-07-22T12:34:06.255Z,18.70
2018-07-22T12:36:38.174Z,18.70
2018-07-22T12:39:13.566Z,18.70
2018-07-22T12:41:55.627Z,18.60
2018-07-22T12:44:35.716Z,18.60
2018-07-22T12:47:16.267Z,18.60
2018-07-22T12:49:48.113Z,18.50
2018-07-22T12:52:21.872Z,18.60
2018-07-22T12:54:54.293Z,18.50
2018-07-22T12:57:27.362Z,18.50
2018-07-22T12:59:59.673Z,18.50
2018-07-22T13:02:34.512Z,18.50
2018-07-22T13:05:07.102Z,18.50
2018-07-22T13:07:41.456Z,18.50
2018-07-22T13:10:15.462Z,18.40
2018-07-22T13:12:51.851Z,18.50
2018-07-22T13:15:23.619Z,18.50
2018-07-22T13:17:59.700Z,18.60
2018-07-22T13:20:39.110Z,18.60
2018-07-22T13:23:11.141Z,18.60
2018-07-22T13:25:42.780Z,18.60
2018-07-22T13:28:14.971Z,18.60
2018-07-22T13:30:54.797Z,18.60
2018-07-22T13:33:35.154Z,18.70
2018-07-22T13:36:14.959Z,18.70
2018-07-22T13:38:54.518Z,18.70
2018-07-22T13:41:33.886Z,18.70
2018-07-22T13:44:08.126Z,18.70
2018-07-22T13:46:44.728Z,18.70
2018-07-22T13:49:22.665Z,18.70
2018-07-22T13:52:02.509Z,18.70
2018-07-22T13:54:42.148Z,18.70
2018-07-22T13:57:13.990Z,18.80
2018-07-22T13:59:51.014Z,18.80
2018-07-22T14:02:30.704Z,18.90
2018-07-22T14:05:06.888Z,18.90
2018-07-22T14:07:46.260Z,18.90
2018-07-22T14:10:26.131Z,18.90
2018-07-22T14:13:06.008Z,18.80
2018-07-22T14:15:45.705Z,18.80
2018-07-22T14:18:25.970Z,18.90
2018-07-22T14:21:09.041Z,18.80
2018-07-22T14:23:49.679Z,18.80
2018-07-22T14:26:40.064Z,18.90
2018-07-22T14:29:20.589Z,18.90
2018-07-22T14:32:02.040Z,18.80
2018-07-22T14:34:42.426Z,18.80
2018-07-22T14:37:22.830Z,18.80
2018-07-22T14:40:03.642Z,18.80
2018-07-22T14:42:44.060Z,18.80
2018-07-22T14:45:24.337Z,18.80
2018-07-22T14:47:56.186Z,18.90
2018-07-22T14:50:36.680Z,18.90
2018-07-22T14:53:09.298Z,18.80
2018-07-22T14:55:50.700Z,18.90
2018-07-22T14:58:30.701Z,18.90
2018-07-22T15:01:04.759Z,18.90
2018-07-22T15:03:58.348Z,18.90
2018-07-22T15:06:31.239Z,18.90
2018-07-22T15:09:11.361Z,18.90
2018-07-22T15:11:51.216Z,18.90
2018-07-22T15:14:31.055Z,18.90
2018-07-22T15:17:10.933Z,19.00
2018-07-22T15:19:51.508Z,18.90
2018-07-22T15:22:31.693Z,18.90
2018-07-22T15:25:11.603Z,18.90
2018-07-22T15:27:52.140Z,18.90
2018-07-22T15:30:31.980Z,18.90
2018-07-22T15:33:12.152Z,19.00
2018-07-22T15:35:52.346Z,19.00
2018-07-22T15:38:33.677Z,19.10
2018-07-22T15:41:14.443Z,19.20
2018-07-22T15:43:54.810Z,19.20
2018-07-22T15:46:35.441Z,19.10
2018-07-22T15:49:15.910Z,19.00
2018-07-22T15:51:53.241Z,19.00
2018-07-22T15:54:33.287Z,19.00
2018-07-22T15:57:12.764Z,19.10
2018-07-22T15:59:52.790Z,19.10
2018-07-22T16:02:32.552Z,19.10
2018-07-22T16:05:13.331Z,19.10
2018-07-22T16:07:53.377Z,19.10
2018-07-22T16:10:35.990Z,19.10
2018-07-22T16:13:16.357Z,19.10
2018-07-22T16:15:56.792Z,19.10
2018-07-22T16:18:36.641Z,19.10
2018-07-22T16:21:16.975Z,19.10
2018-07-22T16:23:56.631Z,19.10
2018-07-22T16:26:37.192Z,19.10
2018-07-22T16:29:16.678Z,19.10
2018-07-22T16:31:56.760Z,19.00
2018-07-22T16:34:37.067Z,19.00
2018-07-22T16:37:17.855Z,18.90
2018-07-22T16:39:57.801Z,18.90
2018-07-22T16:42:37.729Z,18.90
2018-07-22T16:45:15.583Z,18.90
2018-07-22T16:47:54.920Z,18.90
2018-07-22T16:50:35.240Z,18.90
2018-07-22T16:53:15.377Z,18.90
2018-07-22T16:55:55.465Z,18.80
2018-07-22T16:58:35.457Z,18.90
2018-07-22T17:01:15.438Z,18.70
2018-07-22T17:03:55.954Z,18.70
2018-07-22T17:06:37.383Z,18.70
2018-07-22T17:09:17.850Z,18.70
2018-07-22T17:11:57.504Z,18.70
2018-07-22T17:14:37.460Z,18.60
2018-07-22T17:18:21.954Z,18.60
2018-07-22T17:21:02.482Z,18.60
2018-07-22T17:23:43.799Z,18.60
2018-07-22T17:26:24.512Z,18.60
2018-07-22T17:29:05.083Z,18.60
2018-07-22T17:31:45.651Z,18.60
2018-07-22T17:34:25.709Z,18.70
2018-07-22T17:37:05.452Z,18.70
2018-07-22T17:39:45.107Z,18.70
2018-07-22T17:42:26.025Z,18.80
2018-07-22T17:45:05.584Z,18.80
2018-07-22T17:47:38.544Z,18.80
2018-07-22T17:50:15.868Z,18.80
2018-07-22T17:52:56.055Z,18.80
2018-07-22T17:55:36.201Z,18.80
2018-07-22T17:58:16.484Z,18.80
2018-07-22T18:00:56.398Z,18.80
2018-07-22T18:03:36.534Z,18.70
2018-07-22T18:06:15.995Z,18.70
2018-07-22T18:08:55.446Z,18.70
2018-07-22T18:11:32.322Z,18.70
2018-07-22T18:14:13.155Z,18.70
2018-07-22T18:16:53.629Z,18.70
2018-07-22T18:19:33.210Z,18.70
2018-07-22T18:22:13.104Z,18.80
2018-07-22T18:24:52.395Z,18.80
2018-07-22T18:30:11.313Z,18.80
2018-07-22T18:32:43.483Z,18.70
2018-07-22T18:35:23.499Z,18.70
2018-07-22T18:38:03.652Z,18.70
2018-07-22T18:40:41.982Z,18.60
2018-07-22T18:43:19.232Z,18.60
2018-07-22T18:45:59.338Z,18.60
2018-07-22T18:48:39.752Z,18.60
2018-07-22T18:51:19.543Z,18.50
2018-07-22T18:53:57.977Z,18.50
2018-07-22T18:56:37.344Z,18.50
2018-07-22T18:59:17.302Z,18.50
2018-07-22T19:01:57.154Z,18.50
2018-07-22T19:04:37.153Z,18.50
2018-07-22T19:07:17.078Z,18.50
2018-07-22T19:09:57.123Z,18.40
2018-07-22T19:12:36.959Z,18.40
2018-07-22T19:15:17.721Z,18.40
2018-07-22T19:17:57.870Z,18.40
2018-07-22T19:20:38.109Z,18.40
2018-07-22T19:23:17.713Z,18.40
2018-07-22T19:25:57.800Z,18.50
2018-07-22T19:28:37.590Z,18.50
2018-07-22T19:31:17.696Z,18.50
2018-07-22T19:33:58.042Z,18.50
2018-07-22T19:37:01.805Z,18.50
2018-07-22T19:39:42.931Z,18.40
2018-07-22T19:42:23.667Z,18.40
2018-07-22T19:45:03.018Z,18.40
2018-07-22T19:47:42.745Z,18.40
2018-07-22T19:50:22.671Z,18.40
2018-07-22T19:53:04.816Z,18.40
2018-07-22T19:55:45.220Z,18.40
2018-07-22T19:58:25.443Z,18.40
2018-07-22T20:01:05.316Z,18.40
2018-07-22T20:03:37.647Z,18.30
2018-07-22T20:06:17.525Z,18.30
2018-07-22T20:08:50.071Z,18.30
2018-07-22T20:11:30.433Z,18.30
2018-07-22T20:14:10.485Z,18.20
2018-07-22T20:16:50.944Z,18.20
2018-07-22T20:19:30.607Z,18.20
2018-07-22T20:22:10.392Z,18.30
2018-07-22T20:24:49.891Z,18.30
2018-07-22T20:27:21.580Z,18.30
2018-07-22T20:29:59.082Z,18.30
2018-07-22T20:32:37.341Z,18.20
2018-07-22T20:35:17.011Z,18.20
2018-07-22T20:37:56.903Z,18.20
2018-07-22T20:40:37.262Z,18.20
2018-07-22T20:43:16.764Z,18.20
2018-07-22T20:45:56.766Z,18.20
2018-07-22T20:48:28.737Z,18.30
2018-07-22T20:51:08.860Z,18.30
2018-07-22T20:53:49.370Z,18.30
2018-07-22T20:56:29.938Z,18.30
2018-07-22T20:59:10.569Z,18.30
2018-07-22T21:01:50.724Z,18.30
2018-07-22T21:04:31.063Z,18.40
2018-07-22T21:07:11.348Z,18.40
2018-07-22T21:09:51.436Z,18.40
2018-07-22T21:12:30.624Z,18.40
2018-07-22T21:15:10.542Z,18.30
2018-07-22T21:17:49.360Z,18.40
2018-07-22T21:20:31.057Z,18.40
2018-07-22T21:23:10.629Z,18.40
2018-07-22T21:25:50.355Z,18.40
2018-07-22T21:28:30.384Z,18.40
2018-07-22T21:31:14.342Z,18.40
2018-07-22T21:33:54.861Z,18.40
2018-07-22T21:36:34.625Z,18.30
2018-07-22T21:39:10.264Z,18.20
2018-07-22T21:41:50.706Z,18.20
2018-07-22T21:44:31.567Z,18.20
2018-07-22T21:49:58.341Z,18.10
2018-07-22T21:52:38.580Z,18.10
2018-07-22T21:55:10.722Z,18.10
2018-07-22T21:57:50.770Z,18.10
2018-07-22T22:00:35.613Z,18.10
2018-07-22T22:03:15.764Z,18.10
2018-07-22T22:05:55.913Z,18.10
2018-07-22T22:08:36.488Z,18.00
2018-07-22T22:11:16.848Z,17.90
2018-07-22T22:13:56.614Z,17.90
2018-07-22T22:16:37.584Z,17.90
2018-07-22T22:19:21.629Z,17.80
2018-07-22T22:21:55.655Z,17.90
2018-07-22T22:24:35.431Z,17.90
2018-07-22T22:27:15.472Z,17.90
2018-07-22T22:29:54.516Z,18.00
2018-07-22T22:32:31.427Z,18.00
2018-07-22T22:35:11.746Z,18.00
2018-07-22T22:37:51.792Z,18.00
2018-07-22T22:40:34.164Z,17.90
2018-07-22T22:43:14.281Z,18.00
2018-07-22T22:45:56.419Z,17.90
2018-07-22T22:48:35.745Z,18.00
2018-07-22T22:51:19.139Z,18.10
2018-07-22T22:53:51.790Z,18.10
2018-07-22T22:56:23.103Z,18.00
2018-07-22T22:59:04.720Z,18.00
2018-07-22T23:01:36.734Z,17.90
2018-07-22T23:04:09.209Z,17.90
2018-07-22T23:06:41.249Z,17.80
2018-07-22T23:09:14.209Z,17.80
2018-07-22T23:11:46.259Z,17.80
2018-07-22T23:14:26.712Z,17.80
2018-07-22T23:17:04.853Z,17.80
2018-07-22T23:19:36.043Z,17.80
2018-07-22T23:22:08.577Z,17.70
2018-07-22T23:24:54.846Z,17.70
2018-07-22T23:27:25.977Z,17.60
2018-07-22T23:29:58.053Z,17.60
2018-07-22T23:32:29.240Z,17.60
2018-07-22T23:35:10.869Z,17.60
2018-07-22T23:37:53.781Z,17.60
2018-07-22T23:40:25.160Z,17.60
2018-07-22T23:42:57.941Z,17.70
2018-07-22T23:45:39.840Z,17.70
2018-07-22T23:48:11.760Z,17.60
2018-07-22T23:50:56.541Z,17.60
2018-07-22T23:56:05.814Z,17.50
2018-07-22T23:58:38.061Z,17.40
